sensor_id;sensor_type;location;lat;lon;timestamp;noise_LAeq;noise_LA_min;noise_LA_max;noise_LA01;noise_LA95
37279;Laerm;7458;49.002;8.472;2023-04-12T00:01:37;48.64;41.06;73.75;;
37279;Laerm;7458;49.002;8.472;2023-04-12T00:04:03;50.79;40.80;82.28;;
37279;Laerm;7458;49.002;8.472;2023-04-12T00:06:32;45.71;41.14;56.26;;
37279;Laerm;7458;49.002;8.472;2023-04-12T00:08:59;45.61;40.79;60.95;;
37279;Laerm;7458;49.002;8.472;2023-04-12T00:11:25;45.80;40.98;63.53;;
37279;Laerm;7458;49.002;8.472;2023-04-12T00:13:54;47.02;41.82;68.96;;
37279;Laerm;7458;49.002;8.472;2023-04-12T00:16:21;46.66;41.89;59.24;;
37279;Laerm;7458;49.002;8.472;2023-04-12T00:18:46;46.32;40.43;63.94;;
37279;Laerm;7458;49.002;8.472;2023-04-12T00:21:13;45.38;40.62;61.13;;
37279;Laerm;7458;49.002;8.472;2023-04-12T00:23:44;45.20;40.23;60.42;;
37279;Laerm;7458;49.002;8.472;2023-04-12T00:26:12;46.23;40.45;74.10;;
37279;Laerm;7458;49.002;8.472;2023-04-12T00:28:38;45.90;40.98;67.77;;
37279;Laerm;7458;49.002;8.472;2023-04-12T00:31:04;46.84;41.46;71.66;;
37279;Laerm;7458;49.002;8.472;2023-04-12T00:33:32;47.46;40.33;70.61;;
37279;Laerm;7458;49.002;8.472;2023-04-12T00:35:57;49.53;41.38;66.89;;
37279;Laerm;7458;49.002;8.472;2023-04-12T00:38:23;45.43;40.23;64.27;;
37279;Laerm;7458;49.002;8.472;2023-04-12T00:40:50;45.47;39.81;66.29;;
37279;Laerm;7458;49.002;8.472;2023-04-12T00:43:15;47.15;39.81;79.12;;
37279;Laerm;7458;49.002;8.472;2023-04-12T00:45:44;49.28;37.88;65.56;;
37279;Laerm;7458;49.002;8.472;2023-04-12T00:48:11;43.41;38.37;63.03;;
37279;Laerm;7458;49.002;8.472;2023-04-12T00:50:38;48.26;38.67;65.13;;
37279;Laerm;7458;49.002;8.472;2023-04-12T00:53:13;43.52;38.81;56.37;;
37279;Laerm;7458;49.002;8.472;2023-04-12T00:55:45;43.45;38.21;56.72;;
37279;Laerm;7458;49.002;8.472;2023-04-12T00:58:13;43.59;38.81;55.52;;
37279;Laerm;7458;49.002;8.472;2023-04-12T01:00:39;43.87;38.81;53.11;;
37279;Laerm;7458;49.002;8.472;2023-04-12T01:03:06;43.41;38.37;56.60;;
37279;Laerm;7458;49.002;8.472;2023-04-12T01:05:42;43.91;38.52;65.55;;
37279;Laerm;7458;49.002;8.472;2023-04-12T01:08:53;49.24;38.52;67.04;;
37279;Laerm;7458;49.002;8.472;2023-04-12T01:11:30;43.48;38.81;65.21;;
37279;Laerm;7458;49.002;8.472;2023-04-12T01:14:10;43.53;38.81;56.38;;
37279;Laerm;7458;49.002;8.472;2023-04-12T01:16:48;43.62;38.81;55.10;;
37279;Laerm;7458;49.002;8.472;2023-04-12T01:19:36;43.62;39.08;50.74;;
37279;Laerm;7458;49.002;8.472;2023-04-12T01:22:37;43.27;38.95;59.86;;
37279;Laerm;7458;49.002;8.472;2023-04-12T01:25:23;43.11;38.95;51.47;;
37279;Laerm;7458;49.002;8.472;2023-04-12T01:28:07;43.41;38.05;51.47;;
37279;Laerm;7458;49.002;8.472;2023-04-12T01:30:36;43.62;38.05;51.62;;
37279;Laerm;7458;49.002;8.472;2023-04-12T01:33:05;43.40;38.21;52.78;;
37279;Laerm;7458;49.002;8.472;2023-04-12T01:35:33;43.56;39.21;51.29;;
37279;Laerm;7458;49.002;8.472;2023-04-12T01:37:59;43.51;38.05;51.82;;
37279;Laerm;7458;49.002;8.472;2023-04-12T01:40:28;43.76;38.52;57.26;;
37279;Laerm;7458;49.002;8.472;2023-04-12T01:45:30;44.09;39.21;51.41;;
37279;Laerm;7458;49.002;8.472;2023-04-12T01:47:56;43.57;38.95;51.00;;
37279;Laerm;7458;49.002;8.472;2023-04-12T01:53:09;43.60;38.05;57.28;;
37279;Laerm;7458;49.002;8.472;2023-04-12T01:55:38;49.51;39.70;66.79;;
37279;Laerm;7458;49.002;8.472;2023-04-12T01:58:05;44.24;39.21;56.61;;
37279;Laerm;7458;49.002;8.472;2023-04-12T02:00:35;44.22;39.34;54.12;;
37279;Laerm;7458;49.002;8.472;2023-04-12T02:03:03;46.97;39.92;58.78;;
37279;Laerm;7458;49.002;8.472;2023-04-12T02:05:31;44.36;39.34;53.94;;
37279;Laerm;7458;49.002;8.472;2023-04-12T02:07:58;43.66;38.05;51.44;;
37279;Laerm;7458;49.002;8.472;2023-04-12T02:10:32;43.46;38.67;51.35;;
37279;Laerm;7458;49.002;8.472;2023-04-12T02:13:02;44.05;39.08;54.69;;
37279;Laerm;7458;49.002;8.472;2023-04-12T02:15:29;43.73;38.05;56.10;;
37279;Laerm;7458;49.002;8.472;2023-04-12T02:17:56;54.34;38.37;73.62;;
37279;Laerm;7458;49.002;8.472;2023-04-12T02:20:24;42.99;37.12;52.68;;
37279;Laerm;7458;49.002;8.472;2023-04-12T02:22:50;44.13;37.70;73.67;;
37279;Laerm;7458;49.002;8.472;2023-04-12T02:25:17;43.30;37.88;58.33;;
37279;Laerm;7458;49.002;8.472;2023-04-12T02:27:44;43.29;38.52;55.50;;
37279;Laerm;7458;49.002;8.472;2023-04-12T02:30:11;43.69;38.21;55.73;;
37279;Laerm;7458;49.002;8.472;2023-04-12T02:32:38;43.67;38.52;55.50;;
37279;Laerm;7458;49.002;8.472;2023-04-12T02:35:14;50.70;39.21;68.19;;
37279;Laerm;7458;49.002;8.472;2023-04-12T02:37:46;43.78;38.37;66.36;;
37279;Laerm;7458;49.002;8.472;2023-04-12T02:40:13;43.58;38.37;59.37;;
37279;Laerm;7458;49.002;8.472;2023-04-12T02:42:41;43.73;38.37;56.02;;
37279;Laerm;7458;49.002;8.472;2023-04-12T02:45:08;44.53;38.81;66.86;;
37279;Laerm;7458;49.002;8.472;2023-04-12T02:47:35;43.97;38.67;55.11;;
37279;Laerm;7458;49.002;8.472;2023-04-12T02:50:01;45.01;40.23;68.37;;
37279;Laerm;7458;49.002;8.472;2023-04-12T02:52:27;45.95;40.62;61.62;;
37279;Laerm;7458;49.002;8.472;2023-04-12T02:54:56;45.50;40.62;58.44;;
37279;Laerm;7458;49.002;8.472;2023-04-12T02:57:22;45.35;40.33;58.97;;
37279;Laerm;7458;49.002;8.472;2023-04-12T02:59:50;46.08;38.67;66.33;;
37279;Laerm;7458;49.002;8.472;2023-04-12T03:02:20;47.16;40.43;79.54;;
37279;Laerm;7458;49.002;8.472;2023-04-12T03:04:46;45.36;40.23;55.42;;
37279;Laerm;7458;49.002;8.472;2023-04-12T03:07:19;43.98;38.95;53.85;;
37279;Laerm;7458;49.002;8.472;2023-04-12T03:09:46;44.44;39.70;68.15;;
37279;Laerm;7458;49.002;8.472;2023-04-12T03:12:13;46.41;39.92;56.87;;
37279;Laerm;7458;49.002;8.472;2023-04-12T03:14:40;50.60;40.08;66.68;;
37279;Laerm;7458;49.002;8.472;2023-04-12T03:17:06;47.83;41.22;68.84;;
37279;Laerm;7458;49.002;8.472;2023-04-12T03:19:32;45.96;40.13;64.62;;
37279;Laerm;7458;49.002;8.472;2023-04-12T03:22:00;47.43;40.13;59.01;;
37279;Laerm;7458;49.002;8.472;2023-04-12T03:24:28;47.54;39.81;61.49;;
37279;Laerm;7458;49.002;8.472;2023-04-12T03:26:54;53.85;40.23;70.03;;
37279;Laerm;7458;49.002;8.472;2023-04-12T03:29:20;51.54;41.53;71.92;;
37279;Laerm;7458;49.002;8.472;2023-04-12T03:31:47;51.71;41.06;64.25;;
37279;Laerm;7458;49.002;8.472;2023-04-12T03:34:13;49.48;40.80;69.28;;
37279;Laerm;7458;49.002;8.472;2023-04-12T03:36:39;50.99;40.53;73.95;;
37279;Laerm;7458;49.002;8.472;2023-04-12T03:39:06;51.68;39.46;74.59;;
37279;Laerm;7458;49.002;8.472;2023-04-12T03:41:33;53.32;40.71;74.73;;
37279;Laerm;7458;49.002;8.472;2023-04-12T03:43:59;52.21;40.71;65.91;;
37279;Laerm;7458;49.002;8.472;2023-04-12T03:46:25;50.08;40.71;73.51;;
37279;Laerm;7458;49.002;8.472;2023-04-12T03:48:50;51.93;40.71;68.31;;
37279;Laerm;7458;49.002;8.472;2023-04-12T03:51:17;59.65;41.30;80.18;;
37279;Laerm;7458;49.002;8.472;2023-04-12T03:53:42;58.12;41.53;84.93;;
37279;Laerm;7458;49.002;8.472;2023-04-12T03:56:08;55.09;41.75;73.01;;
37279;Laerm;7458;49.002;8.472;2023-04-12T03:58:35;51.41;41.82;67.13;;
37279;Laerm;7458;49.002;8.472;2023-04-12T04:01:02;58.92;42.16;79.67;;
37279;Laerm;7458;49.002;8.472;2023-04-12T04:03:31;58.26;40.89;75.56;;
37279;Laerm;7458;49.002;8.472;2023-04-12T04:06:02;56.23;41.53;70.96;;
37279;Laerm;7458;49.002;8.472;2023-04-12T04:08:28;59.07;41.22;72.96;;
37279;Laerm;7458;49.002;8.472;2023-04-12T04:10:59;56.76;41.30;77.00;;
37279;Laerm;7458;49.002;8.472;2023-04-12T04:13:25;57.16;40.89;75.07;;
37279;Laerm;7458;49.002;8.472;2023-04-12T04:16:04;52.75;40.89;75.47;;
37279;Laerm;7458;49.002;8.472;2023-04-12T04:18:31;54.45;41.61;78.72;;
37279;Laerm;7458;49.002;8.472;2023-04-12T04:20:58;56.04;41.75;82.56;;
37279;Laerm;7458;49.002;8.472;2023-04-12T04:23:24;57.12;41.53;76.16;;
37279;Laerm;7458;49.002;8.472;2023-04-12T04:25:50;51.51;41.30;68.24;;
37279;Laerm;7458;49.002;8.472;2023-04-12T04:28:18;56.78;42.59;75.85;;
37279;Laerm;7458;49.002;8.472;2023-04-12T04:30:44;49.15;42.29;68.45;;
37279;Laerm;7458;49.002;8.472;2023-04-12T04:33:13;51.26;43.04;69.09;;
37279;Laerm;7458;49.002;8.472;2023-04-12T04:35:44;51.60;42.03;75.50;;
37279;Laerm;7458;49.002;8.472;2023-04-12T04:38:09;50.35;42.29;75.60;;
37279;Laerm;7458;49.002;8.472;2023-04-12T04:40:38;47.48;41.06;59.48;;
37279;Laerm;7458;49.002;8.472;2023-04-12T04:43:04;49.81;42.29;62.91;;
37279;Laerm;7458;49.002;8.472;2023-04-12T04:45:31;54.88;42.47;73.15;;
37279;Laerm;7458;49.002;8.472;2023-04-12T04:47:57;52.57;43.09;68.62;;
37279;Laerm;7458;49.002;8.472;2023-04-12T04:50:24;53.60;42.93;69.68;;
37279;Laerm;7458;49.002;8.472;2023-04-12T04:52:51;57.34;42.76;76.69;;
37279;Laerm;7458;49.002;8.472;2023-04-12T04:55:17;56.80;42.03;76.57;;
37279;Laerm;7458;49.002;8.472;2023-04-12T04:57:45;53.81;42.47;71.74;;
37279;Laerm;7458;49.002;8.472;2023-04-12T05:00:11;55.28;43.14;72.70;;
37279;Laerm;7458;49.002;8.472;2023-04-12T05:02:39;54.71;42.22;74.37;;
37279;Laerm;7458;49.002;8.472;2023-04-12T05:05:09;53.03;43.29;70.19;;
37279;Laerm;7458;49.002;8.472;2023-04-12T05:07:35;51.32;42.93;68.48;;
37279;Laerm;7458;49.002;8.472;2023-04-12T05:10:03;55.61;44.27;72.27;;
37279;Laerm;7458;49.002;8.472;2023-04-12T05:12:29;58.06;44.94;72.61;;
37279;Laerm;7458;49.002;8.472;2023-04-12T05:14:56;52.76;44.07;70.85;;
37279;Laerm;7458;49.002;8.472;2023-04-12T05:17:22;60.22;44.15;76.55;;
37279;Laerm;7458;49.002;8.472;2023-04-12T05:19:47;59.85;43.39;75.02;;
37279;Laerm;7458;49.002;8.472;2023-04-12T05:22:13;57.54;43.49;73.98;;
37279;Laerm;7458;49.002;8.472;2023-04-12T05:24:45;57.01;42.47;74.90;;
37279;Laerm;7458;49.002;8.472;2023-04-12T05:27:11;65.34;44.35;87.58;;
37279;Laerm;7458;49.002;8.472;2023-04-12T05:29:36;60.47;46.02;75.46;;
37279;Laerm;7458;49.002;8.472;2023-04-12T05:32:03;59.84;43.29;76.69;;
37279;Laerm;7458;49.002;8.472;2023-04-12T05:34:29;58.78;43.68;75.01;;
37279;Laerm;7458;49.002;8.472;2023-04-12T05:36:55;55.45;43.39;74.06;;
37279;Laerm;7458;49.002;8.472;2023-04-12T05:39:21;57.02;44.39;73.95;;
37279;Laerm;7458;49.002;8.472;2023-04-12T05:41:48;56.73;44.31;74.69;;
37279;Laerm;7458;49.002;8.472;2023-04-12T05:44:14;53.23;43.39;70.06;;
37279;Laerm;7458;49.002;8.472;2023-04-12T05:46:40;57.19;43.58;72.25;;
37279;Laerm;7458;49.002;8.472;2023-04-12T05:49:06;50.31;44.31;62.50;;
37279;Laerm;7458;49.002;8.472;2023-04-12T05:51:32;58.91;44.39;76.02;;
37279;Laerm;7458;49.002;8.472;2023-04-12T05:53:58;50.69;43.54;60.65;;
37279;Laerm;7458;49.002;8.472;2023-04-12T05:56:24;54.25;44.27;70.02;;
37279;Laerm;7458;49.002;8.472;2023-04-12T05:58:50;60.16;44.58;81.38;;
37279;Laerm;7458;49.002;8.472;2023-04-12T06:01:16;55.56;44.11;72.01;;
37279;Laerm;7458;49.002;8.472;2023-04-12T06:03:45;56.10;44.03;72.05;;
37279;Laerm;7458;49.002;8.472;2023-04-12T06:06:10;58.72;43.68;72.55;;
37279;Laerm;7458;49.002;8.472;2023-04-12T06:08:37;56.32;43.72;71.84;;
37279;Laerm;7458;49.002;8.472;2023-04-12T06:11:04;60.40;44.23;76.46;;
37279;Laerm;7458;49.002;8.472;2023-04-12T06:13:30;58.81;44.69;71.21;;
37279;Laerm;7458;49.002;8.472;2023-04-12T06:15:56;54.58;44.76;72.83;;
37279;Laerm;7458;49.002;8.472;2023-04-12T06:18:21;53.41;44.31;70.08;;
37279;Laerm;7458;49.002;8.472;2023-04-12T06:20:47;52.59;44.54;70.05;;
37279;Laerm;7458;49.002;8.472;2023-04-12T06:23:14;54.87;44.23;71.25;;
37279;Laerm;7458;49.002;8.472;2023-04-12T06:25:39;54.61;43.94;67.94;;
37279;Laerm;7458;49.002;8.472;2023-04-12T06:28:05;55.36;44.69;72.17;;
37279;Laerm;7458;49.002;8.472;2023-04-12T06:30:31;59.46;43.77;77.57;;
37279;Laerm;7458;49.002;8.472;2023-04-12T06:32:57;56.66;44.27;73.09;;
37279;Laerm;7458;49.002;8.472;2023-04-12T06:35:23;61.92;44.97;75.58;;
37279;Laerm;7458;49.002;8.472;2023-04-12T06:37:49;57.96;44.27;71.44;;
37279;Laerm;7458;49.002;8.472;2023-04-12T06:40:15;58.21;43.76;75.16;;
37279;Laerm;7458;49.002;8.472;2023-04-12T06:42:41;58.49;44.51;73.77;;
37279;Laerm;7458;49.002;8.472;2023-04-12T06:45:07;58.65;43.81;73.42;;
37279;Laerm;7458;49.002;8.472;2023-04-12T06:47:33;59.56;47.16;74.01;;
37279;Laerm;7458;49.002;8.472;2023-04-12T06:49:59;61.51;45.27;80.32;;
37279;Laerm;7458;49.002;8.472;2023-04-12T06:52:25;63.49;45.07;85.52;;
37279;Laerm;7458;49.002;8.472;2023-04-12T06:54:52;63.29;44.94;80.48;;
37279;Laerm;7458;49.002;8.472;2023-04-12T06:57:18;59.92;45.23;75.69;;
37279;Laerm;7458;49.002;8.472;2023-04-12T06:59:44;59.27;43.85;82.54;;
37279;Laerm;7458;49.002;8.472;2023-04-12T07:02:09;54.23;43.19;76.67;;
37279;Laerm;7458;49.002;8.472;2023-04-12T07:04:36;58.35;43.77;81.62;;
37279;Laerm;7458;49.002;8.472;2023-04-12T07:07:02;60.80;44.07;83.50;;
37279;Laerm;7458;49.002;8.472;2023-04-12T07:09:30;52.97;44.31;77.31;;
37279;Laerm;7458;49.002;8.472;2023-04-12T07:11:58;57.77;44.07;73.63;;
37279;Laerm;7458;49.002;8.472;2023-04-12T07:14:24;62.02;43.44;78.75;;
37279;Laerm;7458;49.002;8.472;2023-04-12T07:16:54;63.29;43.39;78.65;;
37279;Laerm;7458;49.002;8.472;2023-04-12T07:19:20;52.70;44.23;73.93;;
37279;Laerm;7458;49.002;8.472;2023-04-12T07:21:46;52.69;43.14;66.58;;
37279;Laerm;7458;49.002;8.472;2023-04-12T07:24:12;64.50;43.54;81.20;;
37279;Laerm;7458;49.002;8.472;2023-04-12T07:26:38;58.26;44.19;75.40;;
37279;Laerm;7458;49.002;8.472;2023-04-12T07:29:04;53.99;43.44;72.39;;
37279;Laerm;7458;49.002;8.472;2023-04-12T07:31:30;58.71;44.90;76.88;;
37279;Laerm;7458;49.002;8.472;2023-04-12T07:33:56;56.78;44.87;83.38;;
37279;Laerm;7458;49.002;8.472;2023-04-12T07:36:21;59.07;44.79;74.78;;
37279;Laerm;7458;49.002;8.472;2023-04-12T07:38:47;58.22;44.39;85.35;;
37279;Laerm;7458;49.002;8.472;2023-04-12T07:41:16;50.11;43.99;76.98;;
37279;Laerm;7458;49.002;8.472;2023-04-12T07:43:44;54.23;43.90;73.05;;
37279;Laerm;7458;49.002;8.472;2023-04-12T07:46:10;53.02;43.72;68.80;;
37279;Laerm;7458;49.002;8.472;2023-04-12T07:48:36;51.39;43.81;68.67;;
37279;Laerm;7458;49.002;8.472;2023-04-12T07:51:02;58.46;43.54;71.68;;
37279;Laerm;7458;49.002;8.472;2023-04-12T07:53:28;52.39;43.34;73.48;;
37279;Laerm;7458;49.002;8.472;2023-04-12T07:55:55;57.19;43.34;74.82;;
37279;Laerm;7458;49.002;8.472;2023-04-12T07:58:22;58.11;43.19;76.06;;
37279;Laerm;7458;49.002;8.472;2023-04-12T08:00:49;57.53;43.24;72.75;;
37279;Laerm;7458;49.002;8.472;2023-04-12T08:03:17;57.17;43.44;75.21;;
37279;Laerm;7458;49.002;8.472;2023-04-12T08:05:44;55.25;44.47;72.66;;
37279;Laerm;7458;49.002;8.472;2023-04-12T08:08:10;62.14;46.94;82.09;;
37279;Laerm;7458;49.002;8.472;2023-04-12T08:10:37;60.90;45.91;74.51;;
37279;Laerm;7458;49.002;8.472;2023-04-12T08:13:04;61.38;45.14;79.26;;
37279;Laerm;7458;49.002;8.472;2023-04-12T08:15:31;58.27;44.97;72.91;;
37279;Laerm;7458;49.002;8.472;2023-04-12T08:17:57;56.21;45.17;73.31;;
37279;Laerm;7458;49.002;8.472;2023-04-12T08:20:23;61.12;47.36;75.41;;
37279;Laerm;7458;49.002;8.472;2023-04-12T08:22:49;54.09;46.30;81.13;;
37279;Laerm;7458;49.002;8.472;2023-04-12T08:25:16;65.40;45.42;85.33;;
37279;Laerm;7458;49.002;8.472;2023-04-12T08:27:44;64.53;44.38;84.51;;
37279;Laerm;7458;49.002;8.472;2023-04-12T08:30:11;56.71;43.39;69.82;;
37279;Laerm;7458;49.002;8.472;2023-04-12T08:32:38;61.38;44.11;80.75;;
37279;Laerm;7458;49.002;8.472;2023-04-12T08:35:05;64.20;44.15;82.29;;
37279;Laerm;7458;49.002;8.472;2023-04-12T08:37:31;58.22;44.19;79.25;;
37279;Laerm;7458;49.002;8.472;2023-04-12T08:40:06;55.93;43.14;73.33;;
37279;Laerm;7458;49.002;8.472;2023-04-12T08:42:36;54.75;44.47;67.77;;
37279;Laerm;7458;49.002;8.472;2023-04-12T08:45:08;62.85;47.98;76.53;;
37279;Laerm;7458;49.002;8.472;2023-04-12T08:47:40;62.85;46.28;79.40;;
37279;Laerm;7458;49.002;8.472;2023-04-12T08:50:08;60.05;44.62;89.02;;
37279;Laerm;7458;49.002;8.472;2023-04-12T08:52:36;54.76;44.39;75.83;;
37279;Laerm;7458;49.002;8.472;2023-04-12T08:55:07;63.68;46.32;81.39;;
37279;Laerm;7458;49.002;8.472;2023-04-12T08:57:40;57.86;46.25;73.06;;
37279;Laerm;7458;49.002;8.472;2023-04-12T09:00:09;54.82;44.97;71.83;;
37279;Laerm;7458;49.002;8.472;2023-04-12T09:02:36;60.58;46.15;78.64;;
37279;Laerm;7458;49.002;8.472;2023-04-12T09:05:04;57.78;45.83;80.56;;
37279;Laerm;7458;49.002;8.472;2023-04-12T09:07:30;53.70;44.58;72.59;;
37279;Laerm;7458;49.002;8.472;2023-04-12T09:09:57;53.04;45.98;79.28;;
37279;Laerm;7458;49.002;8.472;2023-04-12T09:12:24;57.77;45.63;75.66;;
37279;Laerm;7458;49.002;8.472;2023-04-12T09:15:11;56.30;46.40;82.60;;
37279;Laerm;7458;49.002;8.472;2023-04-12T09:17:40;51.63;46.33;64.39;;
37279;Laerm;7458;49.002;8.472;2023-04-12T09:22:40;61.08;46.57;75.61;;
37279;Laerm;7458;49.002;8.472;2023-04-12T09:25:10;60.46;46.25;73.95;;
37279;Laerm;7458;49.002;8.472;2023-04-12T09:27:50;56.07;44.58;70.17;;
37279;Laerm;7458;49.002;8.472;2023-04-12T09:30:18;55.71;44.51;74.59;;
37279;Laerm;7458;49.002;8.472;2023-04-12T09:32:45;49.76;44.94;72.96;;
37279;Laerm;7458;49.002;8.472;2023-04-12T09:35:14;50.11;45.36;69.06;;
37279;Laerm;7458;49.002;8.472;2023-04-12T09:37:40;56.18;44.97;74.62;;
37279;Laerm;7458;49.002;8.472;2023-04-12T09:40:08;54.48;45.45;69.58;;
37279;Laerm;7458;49.002;8.472;2023-04-12T09:42:51;56.13;46.38;73.66;;
37279;Laerm;7458;49.002;8.472;2023-04-12T09:45:23;55.53;47.08;72.87;;
37279;Laerm;7458;49.002;8.472;2023-04-12T09:47:50;61.76;46.30;77.68;;
37279;Laerm;7458;49.002;8.472;2023-04-12T09:50:25;53.11;45.63;74.09;;
37279;Laerm;7458;49.002;8.472;2023-04-12T09:52:57;53.99;45.42;71.35;;
37279;Laerm;7458;49.002;8.472;2023-04-12T09:55:25;52.16;45.57;72.71;;
37279;Laerm;7458;49.002;8.472;2023-04-12T09:57:53;55.19;45.45;72.19;;
37279;Laerm;7458;49.002;8.472;2023-04-12T10:00:23;55.63;46.25;69.66;;
37279;Laerm;7458;49.002;8.472;2023-04-12T10:02:52;52.27;45.63;74.03;;
37279;Laerm;7458;49.002;8.472;2023-04-12T10:05:21;55.34;45.66;72.91;;
37279;Laerm;7458;49.002;8.472;2023-04-12T10:07:51;59.12;46.59;74.61;;
37279;Laerm;7458;49.002;8.472;2023-04-12T10:10:18;55.31;46.71;69.43;;
37279;Laerm;7458;49.002;8.472;2023-04-12T10:12:47;57.38;45.33;75.40;;
37279;Laerm;7458;49.002;8.472;2023-04-12T10:15:14;56.61;44.80;76.01;;
37279;Laerm;7458;49.002;8.472;2023-04-12T10:17:52;56.80;45.51;78.30;;
37279;Laerm;7458;49.002;8.472;2023-04-12T10:20:19;58.42;44.15;76.48;;
37279;Laerm;7458;49.002;8.472;2023-04-12T10:22:51;53.33;44.80;71.39;;
37279;Laerm;7458;49.002;8.472;2023-04-12T10:25:23;56.65;44.27;74.45;;
37279;Laerm;7458;49.002;8.472;2023-04-12T10:27:50;58.09;46.38;72.99;;
37279;Laerm;7458;49.002;8.472;2023-04-12T10:30:30;55.69;45.14;72.06;;
37279;Laerm;7458;49.002;8.472;2023-04-12T10:35:29;55.90;44.90;81.91;;
37279;Laerm;7458;49.002;8.472;2023-04-12T10:38:03;55.69;45.07;75.75;;
37279;Laerm;7458;49.002;8.472;2023-04-12T10:40:31;56.37;46.40;71.92;;
37279;Laerm;7458;49.002;8.472;2023-04-12T10:45:48;60.59;46.43;89.34;;
37279;Laerm;7458;49.002;8.472;2023-04-12T10:48:50;53.53;45.36;75.78;;
37279;Laerm;7458;49.002;8.472;2023-04-12T10:51:23;54.91;45.30;72.96;;
37279;Laerm;7458;49.002;8.472;2023-04-12T10:56:44;49.45;44.62;73.34;;
37279;Laerm;7458;49.002;8.472;2023-04-12T10:59:12;53.13;45.33;67.65;;
37279;Laerm;7458;49.002;8.472;2023-04-12T11:01:39;57.32;44.69;73.76;;
37279;Laerm;7458;49.002;8.472;2023-04-12T11:06:53;53.92;46.30;68.81;;
37279;Laerm;7458;49.002;8.472;2023-04-12T11:14:43;50.70;45.30;68.75;;
37279;Laerm;7458;49.002;8.472;2023-04-12T11:19:50;54.68;45.45;66.43;;
37279;Laerm;7458;49.002;8.472;2023-04-12T11:22:19;58.05;45.45;78.12;;
37279;Laerm;7458;49.002;8.472;2023-04-12T11:24:51;57.70;45.27;83.98;;
37279;Laerm;7458;49.002;8.472;2023-04-12T11:27:22;55.25;45.57;82.04;;
37279;Laerm;7458;49.002;8.472;2023-04-12T11:29:51;54.40;45.23;69.21;;
37279;Laerm;7458;49.002;8.472;2023-04-12T11:32:22;54.56;44.83;74.18;;
37279;Laerm;7458;49.002;8.472;2023-04-12T11:34:49;53.55;45.86;73.28;;
37279;Laerm;7458;49.002;8.472;2023-04-12T11:37:18;59.05;45.39;85.68;;
37279;Laerm;7458;49.002;8.472;2023-04-12T11:39:46;56.88;45.77;73.61;;
37279;Laerm;7458;49.002;8.472;2023-04-12T11:42:18;56.09;45.45;72.53;;
37279;Laerm;7458;49.002;8.472;2023-04-12T11:44:46;59.32;45.42;86.50;;
37279;Laerm;7458;49.002;8.472;2023-04-12T11:47:21;55.30;45.66;71.48;;
37279;Laerm;7458;49.002;8.472;2023-04-12T11:49:57;54.74;46.87;70.12;;
37279;Laerm;7458;49.002;8.472;2023-04-12T11:52:31;52.95;45.45;70.34;;
37279;Laerm;7458;49.002;8.472;2023-04-12T11:55:02;54.73;46.10;72.08;;
37279;Laerm;7458;49.002;8.472;2023-04-12T11:57:29;57.22;46.69;81.41;;
37279;Laerm;7458;49.002;8.472;2023-04-12T11:59:57;59.65;45.60;87.07;;
37279;Laerm;7458;49.002;8.472;2023-04-12T12:02:26;58.99;45.23;83.91;;
37279;Laerm;7458;49.002;8.472;2023-04-12T12:04:53;57.72;46.62;77.17;;
37279;Laerm;7458;49.002;8.472;2023-04-12T12:07:21;58.19;45.14;72.46;;
37279;Laerm;7458;49.002;8.472;2023-04-12T12:09:49;58.23;46.05;85.28;;
37279;Laerm;7458;49.002;8.472;2023-04-12T12:12:15;63.81;46.73;97.20;;
37279;Laerm;7458;49.002;8.472;2023-04-12T12:14:43;58.80;48.51;72.70;;
37279;Laerm;7458;49.002;8.472;2023-04-12T12:17:14;56.64;45.27;71.61;;
37279;Laerm;7458;49.002;8.472;2023-04-12T12:19:43;56.13;45.20;69.80;;
37279;Laerm;7458;49.002;8.472;2023-04-12T12:22:19;51.81;45.57;73.69;;
37279;Laerm;7458;49.002;8.472;2023-04-12T12:24:59;56.30;45.80;76.24;;
37279;Laerm;7458;49.002;8.472;2023-04-12T12:27:37;56.44;46.94;77.62;;
37279;Laerm;7458;49.002;8.472;2023-04-12T12:30:08;57.65;46.69;74.27;;
37279;Laerm;7458;49.002;8.472;2023-04-12T12:32:36;55.31;46.30;73.07;;
37279;Laerm;7458;49.002;8.472;2023-04-12T12:35:07;58.38;46.28;78.06;;
37279;Laerm;7458;49.002;8.472;2023-04-12T12:37:34;63.12;46.40;82.02;;
37279;Laerm;7458;49.002;8.472;2023-04-12T12:40:09;54.21;46.05;68.33;;
37279;Laerm;7458;49.002;8.472;2023-04-12T12:42:45;56.38;46.10;81.33;;
37279;Laerm;7458;49.002;8.472;2023-04-12T12:45:12;61.11;45.97;85.39;;
37279;Laerm;7458;49.002;8.472;2023-04-12T12:47:57;58.71;46.18;87.36;;
37279;Laerm;7458;49.002;8.472;2023-04-12T12:50:26;56.17;47.28;79.78;;
37279;Laerm;7458;49.002;8.472;2023-04-12T12:52:53;60.34;45.97;86.01;;
37279;Laerm;7458;49.002;8.472;2023-04-12T12:55:22;56.63;46.40;75.28;;
37279;Laerm;7458;49.002;8.472;2023-04-12T12:57:51;58.61;45.23;85.97;;
37279;Laerm;7458;49.002;8.472;2023-04-12T13:00:20;68.04;46.82;94.13;;
37279;Laerm;7458;49.002;8.472;2023-04-12T13:02:46;58.90;46.57;84.65;;
37279;Laerm;7458;49.002;8.472;2023-04-12T13:05:13;59.45;46.82;84.99;;
37279;Laerm;7458;49.002;8.472;2023-04-12T13:07:38;55.72;46.50;76.77;;
37279;Laerm;7458;49.002;8.472;2023-04-12T13:10:05;58.45;47.22;79.69;;
37279;Laerm;7458;49.002;8.472;2023-04-12T13:12:32;59.17;45.66;83.71;;
37279;Laerm;7458;49.002;8.472;2023-04-12T13:14:58;58.83;46.33;86.32;;
37279;Laerm;7458;49.002;8.472;2023-04-12T13:17:27;53.44;45.27;76.22;;
37279;Laerm;7458;49.002;8.472;2023-04-12T13:19:54;53.84;45.45;77.28;;
37279;Laerm;7458;49.002;8.472;2023-04-12T13:22:20;54.31;44.80;85.01;;
37279;Laerm;7458;49.002;8.472;2023-04-12T13:24:47;56.15;45.17;71.42;;
37279;Laerm;7458;49.002;8.472;2023-04-12T13:27:15;55.84;44.79;72.71;;
37279;Laerm;7458;49.002;8.472;2023-04-12T13:29:42;51.36;44.80;68.23;;
37279;Laerm;7458;49.002;8.472;2023-04-12T13:32:07;55.01;45.66;74.72;;
37279;Laerm;7458;49.002;8.472;2023-04-12T13:34:34;65.39;47.28;97.33;;
37279;Laerm;7458;49.002;8.472;2023-04-12T13:37:00;56.37;46.43;72.93;;
37279;Laerm;7458;49.002;8.472;2023-04-12T13:39:26;54.83;44.65;72.01;;
37279;Laerm;7458;49.002;8.472;2023-04-12T13:41:52;62.96;46.73;94.83;;
37279;Laerm;7458;49.002;8.472;2023-04-12T13:44:19;57.31;47.04;78.33;;
37279;Laerm;7458;49.002;8.472;2023-04-12T13:46:44;56.47;46.18;83.08;;
37279;Laerm;7458;49.002;8.472;2023-04-12T13:49:10;58.73;46.20;81.35;;
37279;Laerm;7458;49.002;8.472;2023-04-12T13:51:37;54.52;46.25;71.51;;
37279;Laerm;7458;49.002;8.472;2023-04-12T13:54:03;56.26;46.45;77.55;;
37279;Laerm;7458;49.002;8.472;2023-04-12T13:56:29;54.23;46.05;74.34;;
37279;Laerm;7458;49.002;8.472;2023-04-12T13:58:55;55.89;45.63;71.93;;
37279;Laerm;7458;49.002;8.472;2023-04-12T14:01:22;51.50;45.01;71.00;;
37279;Laerm;7458;49.002;8.472;2023-04-12T14:03:50;56.19;45.45;71.05;;
37279;Laerm;7458;49.002;8.472;2023-04-12T14:06:16;54.66;46.43;70.92;;
37279;Laerm;7458;49.002;8.472;2023-04-12T14:08:42;54.97;46.52;71.77;;
37279;Laerm;7458;49.002;8.472;2023-04-12T14:11:08;63.12;46.69;82.58;;
37279;Laerm;7458;49.002;8.472;2023-04-12T14:13:34;62.31;46.30;81.62;;
37279;Laerm;7458;49.002;8.472;2023-04-12T14:15:59;54.79;46.55;78.60;;
37279;Laerm;7458;49.002;8.472;2023-04-12T14:18:25;57.64;47.28;82.80;;
37279;Laerm;7458;49.002;8.472;2023-04-12T14:20:51;55.06;46.89;72.58;;
37279;Laerm;7458;49.002;8.472;2023-04-12T14:23:25;56.64;46.91;79.73;;
37279;Laerm;7458;49.002;8.472;2023-04-12T14:25:52;58.70;49.90;78.09;;
37279;Laerm;7458;49.002;8.472;2023-04-12T14:28:18;57.12;49.44;78.65;;
37279;Laerm;7458;49.002;8.472;2023-04-12T14:30:49;60.57;52.15;74.73;;